sensor_id;sensor_type;location;lat;lon;timestamp;P1;durP1;ratioP1;P2;durP2;ratioP2
29958;SDS011;16815;51.100;6.516;2023-02-02T00:01:55;18.93;;;5.43;;
29958;SDS011;16815;51.100;6.516;2023-02-02T00:04:22;16.73;;;5.90;;
29958;SDS011;16815;51.100;6.516;2023-02-02T00:06:49;16.27;;;4.80;;
29958;SDS011;16815;51.100;6.516;2023-02-02T00:09:16;22.17;;;5.67;;
29958;SDS011;16815;51.100;6.516;2023-02-02T00:11:42;14.53;;;5.40;;
29958;SDS011;16815;51.100;6.516;2023-02-02T00:14:09;16.60;;;4.57;;
29958;SDS011;16815;51.100;6.516;2023-02-02T00:16:54;15.40;;;5.57;;
29958;SDS011;16815;51.100;6.516;2023-02-02T00:19:27;16.90;;;4.97;;
29958;SDS011;16815;51.100;6.516;2023-02-02T00:21:54;19.67;;;5.17;;
29958;SDS011;16815;51.100;6.516;2023-02-02T00:24:20;21.00;;;5.93;;
29958;SDS011;16815;51.100;6.516;2023-02-02T00:26:48;16.10;;;5.77;;
29958;SDS011;16815;51.100;6.516;2023-02-02T00:29:16;23.23;;;5.33;;
29958;SDS011;16815;51.100;6.516;2023-02-02T00:31:42;17.83;;;5.10;;
29958;SDS011;16815;51.100;6.516;2023-02-02T00:34:11;19.47;;;5.13;;
29958;SDS011;16815;51.100;6.516;2023-02-02T00:36:38;16.83;;;4.80;;
29958;SDS011;16815;51.100;6.516;2023-02-02T00:39:04;15.10;;;4.03;;
29958;SDS011;16815;51.100;6.516;2023-02-02T00:41:30;19.20;;;4.70;;
29958;SDS011;16815;51.100;6.516;2023-02-02T00:43:56;12.97;;;4.37;;
29958;SDS011;16815;51.100;6.516;2023-02-02T00:46:41;14.20;;;4.80;;
29958;SDS011;16815;51.100;6.516;2023-02-02T00:49:07;20.10;;;5.47;;
29958;SDS011;16815;51.100;6.516;2023-02-02T00:51:34;15.87;;;5.53;;
29958;SDS011;16815;51.100;6.516;2023-02-02T00:54:00;17.73;;;5.07;;
29958;SDS011;16815;51.100;6.516;2023-02-02T00:56:26;16.83;;;4.87;;
29958;SDS011;16815;51.100;6.516;2023-02-02T00:58:52;17.93;;;5.90;;
29958;SDS011;16815;51.100;6.516;2023-02-02T01:01:18;14.00;;;4.70;;
29958;SDS011;16815;51.100;6.516;2023-02-02T01:03:45;13.47;;;4.47;;
29958;SDS011;16815;51.100;6.516;2023-02-02T01:06:11;13.97;;;4.63;;
29958;SDS011;16815;51.100;6.516;2023-02-02T01:08:37;14.03;;;4.60;;
29958;SDS011;16815;51.100;6.516;2023-02-02T01:11:04;15.67;;;4.53;;
29958;SDS011;16815;51.100;6.516;2023-02-02T01:13:30;16.00;;;4.87;;
29958;SDS011;16815;51.100;6.516;2023-02-02T01:15:56;14.43;;;4.53;;
29958;SDS011;16815;51.100;6.516;2023-02-02T01:18:22;16.33;;;4.87;;
29958;SDS011;16815;51.100;6.516;2023-02-02T01:23:24;23.77;;;5.33;;
29958;SDS011;16815;51.100;6.516;2023-02-02T01:25:53;16.47;;;4.83;;
29958;SDS011;16815;51.100;6.516;2023-02-02T01:28:19;13.43;;;4.30;;
29958;SDS011;16815;51.100;6.516;2023-02-02T01:30:45;20.23;;;4.97;;
29958;SDS011;16815;51.100;6.516;2023-02-02T01:33:11;19.37;;;5.13;;
29958;SDS011;16815;51.100;6.516;2023-02-02T01:35:43;16.13;;;4.37;;
29958;SDS011;16815;51.100;6.516;2023-02-02T01:38:09;20.00;;;4.63;;
29958;SDS011;16815;51.100;6.516;2023-02-02T01:40:35;13.07;;;4.37;;
29958;SDS011;16815;51.100;6.516;2023-02-02T01:43:01;19.13;;;5.17;;
29958;SDS011;16815;51.100;6.516;2023-02-02T01:45:27;11.97;;;4.17;;
29958;SDS011;16815;51.100;6.516;2023-02-02T01:47:55;12.93;;;4.70;;
29958;SDS011;16815;51.100;6.516;2023-02-02T01:50:24;13.67;;;4.57;;
29958;SDS011;16815;51.100;6.516;2023-02-02T01:52:52;15.27;;;4.50;;
29958;SDS011;16815;51.100;6.516;2023-02-02T01:55:19;19.30;;;4.90;;
29958;SDS011;16815;51.100;6.516;2023-02-02T02:00:31;14.33;;;4.47;;
29958;SDS011;16815;51.100;6.516;2023-02-02T02:03:01;17.83;;;5.60;;
29958;SDS011;16815;51.100;6.516;2023-02-02T02:05:31;17.57;;;4.43;;
29958;SDS011;16815;51.100;6.516;2023-02-02T02:08:03;14.00;;;4.47;;
29958;SDS011;16815;51.100;6.516;2023-02-02T02:10:29;15.60;;;4.50;;
29958;SDS011;16815;51.100;6.516;2023-02-02T02:12:55;14.93;;;5.37;;
29958;SDS011;16815;51.100;6.516;2023-02-02T02:15:22;14.60;;;4.03;;
29958;SDS011;16815;51.100;6.516;2023-02-02T02:18:21;17.07;;;4.67;;
29958;SDS011;16815;51.100;6.516;2023-02-02T02:20:57;13.63;;;4.23;;
29958;SDS011;16815;51.100;6.516;2023-02-02T02:24:13;16.50;;;4.37;;
29958;SDS011;16815;51.100;6.516;2023-02-02T02:37:08;15.60;;;5.13;;
29958;SDS011;16815;51.100;6.516;2023-02-02T02:39:54;14.97;;;4.43;;
29958;SDS011;16815;51.100;6.516;2023-02-02T02:42:23;16.87;;;5.13;;
29958;SDS011;16815;51.100;6.516;2023-02-02T02:44:50;17.77;;;4.87;;
29958;SDS011;16815;51.100;6.516;2023-02-02T02:47:17;19.70;;;5.30;;
29958;SDS011;16815;51.100;6.516;2023-02-02T02:49:45;16.67;;;4.53;;
29958;SDS011;16815;51.100;6.516;2023-02-02T02:52:11;14.83;;;5.20;;
29958;SDS011;16815;51.100;6.516;2023-02-02T02:54:42;16.57;;;5.47;;
29958;SDS011;16815;51.100;6.516;2023-02-02T02:59:53;13.93;;;4.87;;
29958;SDS011;16815;51.100;6.516;2023-02-02T03:07:34;17.20;;;5.10;;
29958;SDS011;16815;51.100;6.516;2023-02-02T03:10:02;16.10;;;5.00;;
29958;SDS011;16815;51.100;6.516;2023-02-02T03:12:29;14.63;;;4.37;;
29958;SDS011;16815;51.100;6.516;2023-02-02T03:14:55;13.13;;;4.90;;
29958;SDS011;16815;51.100;6.516;2023-02-02T03:17:21;14.87;;;5.43;;
29958;SDS011;16815;51.100;6.516;2023-02-02T03:19:47;15.20;;;4.80;;
29958;SDS011;16815;51.100;6.516;2023-02-02T03:22:13;14.67;;;4.27;;
29958;SDS011;16815;51.100;6.516;2023-02-02T03:24:39;17.37;;;4.13;;
29958;SDS011;16815;51.100;6.516;2023-02-02T03:27:05;17.70;;;5.03;;
29958;SDS011;16815;51.100;6.516;2023-02-02T03:29:31;15.53;;;5.33;;
29958;SDS011;16815;51.100;6.516;2023-02-02T03:31:57;12.93;;;4.47;;
29958;SDS011;16815;51.100;6.516;2023-02-02T03:34:23;21.10;;;4.80;;
29958;SDS011;16815;51.100;6.516;2023-02-02T03:36:49;19.27;;;4.97;;
29958;SDS011;16815;51.100;6.516;2023-02-02T03:39:15;15.83;;;4.33;;
29958;SDS011;16815;51.100;6.516;2023-02-02T03:41:41;17.90;;;5.33;;
29958;SDS011;16815;51.100;6.516;2023-02-02T03:44:07;14.23;;;4.60;;
29958;SDS011;16815;51.100;6.516;2023-02-02T03:46:33;12.90;;;4.20;;
29958;SDS011;16815;51.100;6.516;2023-02-02T03:48:59;15.07;;;4.57;;
29958;SDS011;16815;51.100;6.516;2023-02-02T03:51:25;12.70;;;5.03;;
29958;SDS011;16815;51.100;6.516;2023-02-02T03:53:51;13.83;;;4.50;;
29958;SDS011;16815;51.100;6.516;2023-02-02T03:56:17;16.10;;;4.87;;
29958;SDS011;16815;51.100;6.516;2023-02-02T03:58:43;18.23;;;5.50;;
29958;SDS011;16815;51.100;6.516;2023-02-02T04:01:11;18.90;;;4.90;;
29958;SDS011;16815;51.100;6.516;2023-02-02T04:03:37;18.73;;;4.80;;
29958;SDS011;16815;51.100;6.516;2023-02-02T04:06:03;16.67;;;4.20;;
29958;SDS011;16815;51.100;6.516;2023-02-02T04:08:29;18.87;;;4.50;;
29958;SDS011;16815;51.100;6.516;2023-02-02T04:10:55;19.83;;;5.97;;
29958;SDS011;16815;51.100;6.516;2023-02-02T04:13:21;16.87;;;5.53;;
29958;SDS011;16815;51.100;6.516;2023-02-02T04:15:47;18.07;;;4.53;;
29958;SDS011;16815;51.100;6.516;2023-02-02T04:18:13;14.53;;;4.50;;
29958;SDS011;16815;51.100;6.516;2023-02-02T04:20:39;19.50;;;5.03;;
29958;SDS011;16815;51.100;6.516;2023-02-02T04:23:05;17.27;;;4.70;;
29958;SDS011;16815;51.100;6.516;2023-02-02T04:25:31;17.57;;;5.10;;
29958;SDS011;16815;51.100;6.516;2023-02-02T04:27:57;15.70;;;4.33;;
29958;SDS011;16815;51.100;6.516;2023-02-02T04:30:22;14.17;;;4.63;;
29958;SDS011;16815;51.100;6.516;2023-02-02T04:32:49;19.00;;;4.80;;
29958;SDS011;16815;51.100;6.516;2023-02-02T04:35:16;17.33;;;5.43;;
29958;SDS011;16815;51.100;6.516;2023-02-02T04:37:42;18.33;;;4.77;;
29958;SDS011;16815;51.100;6.516;2023-02-02T04:40:08;12.80;;;4.90;;
29958;SDS011;16815;51.100;6.516;2023-02-02T04:42:34;20.90;;;5.30;;
29958;SDS011;16815;51.100;6.516;2023-02-02T04:45:00;19.87;;;4.73;;
29958;SDS011;16815;51.100;6.516;2023-02-02T04:47:26;19.80;;;5.47;;
29958;SDS011;16815;51.100;6.516;2023-02-02T04:49:52;13.83;;;4.70;;
29958;SDS011;16815;51.100;6.516;2023-02-02T04:52:18;16.53;;;4.90;;
29958;SDS011;16815;51.100;6.516;2023-02-02T04:54:44;21.43;;;5.93;;
29958;SDS011;16815;51.100;6.516;2023-02-02T04:57:09;21.17;;;5.20;;
29958;SDS011;16815;51.100;6.516;2023-02-02T04:59:35;16.17;;;4.63;;
29958;SDS011;16815;51.100;6.516;2023-02-02T05:02:01;18.67;;;5.07;;
29958;SDS011;16815;51.100;6.516;2023-02-02T05:04:27;16.13;;;5.27;;
29958;SDS011;16815;51.100;6.516;2023-02-02T05:06:53;20.90;;;5.70;;
29958;SDS011;16815;51.100;6.516;2023-02-02T05:09:19;18.80;;;6.03;;
29958;SDS011;16815;51.100;6.516;2023-02-02T05:11:45;15.93;;;4.87;;
29958;SDS011;16815;51.100;6.516;2023-02-02T05:14:11;14.93;;;4.70;;
29958;SDS011;16815;51.100;6.516;2023-02-02T05:16:38;20.17;;;4.63;;
29958;SDS011;16815;51.100;6.516;2023-02-02T05:19:04;16.10;;;5.30;;
29958;SDS011;16815;51.100;6.516;2023-02-02T05:21:30;16.07;;;5.00;;
29958;SDS011;16815;51.100;6.516;2023-02-02T05:23:56;21.70;;;5.77;;
29958;SDS011;16815;51.100;6.516;2023-02-02T05:26:24;19.07;;;6.17;;
29958;SDS011;16815;51.100;6.516;2023-02-02T05:28:50;16.33;;;5.37;;
29958;SDS011;16815;51.100;6.516;2023-02-02T05:31:16;18.30;;;5.30;;
29958;SDS011;16815;51.100;6.516;2023-02-02T05:33:43;16.40;;;5.67;;
29958;SDS011;16815;51.100;6.516;2023-02-02T05:36:09;20.97;;;6.23;;
29958;SDS011;16815;51.100;6.516;2023-02-02T05:38:35;18.17;;;6.07;;
29958;SDS011;16815;51.100;6.516;2023-02-02T05:41:01;14.27;;;5.00;;
29958;SDS011;16815;51.100;6.516;2023-02-02T05:43:27;17.80;;;5.97;;
29958;SDS011;16815;51.100;6.516;2023-02-02T05:45:54;15.97;;;5.50;;
29958;SDS011;16815;51.100;6.516;2023-02-02T05:48:20;20.40;;;5.90;;
29958;SDS011;16815;51.100;6.516;2023-02-02T05:50:48;18.60;;;5.97;;
29958;SDS011;16815;51.100;6.516;2023-02-02T05:53:20;16.47;;;6.07;;
29958;SDS011;16815;51.100;6.516;2023-02-02T05:55:46;17.93;;;5.57;;
29958;SDS011;16815;51.100;6.516;2023-02-02T05:58:12;20.00;;;5.97;;
29958;SDS011;16815;51.100;6.516;2023-02-02T06:00:38;20.60;;;6.87;;
29958;SDS011;16815;51.100;6.516;2023-02-02T06:03:03;16.60;;;6.30;;
29958;SDS011;16815;51.100;6.516;2023-02-02T06:05:29;18.53;;;6.43;;
29958;SDS011;16815;51.100;6.516;2023-02-02T06:07:55;17.53;;;6.87;;
29958;SDS011;16815;51.100;6.516;2023-02-02T06:10:21;23.60;;;6.73;;
29958;SDS011;16815;51.100;6.516;2023-02-02T06:12:47;16.27;;;6.23;;
29958;SDS011;16815;51.100;6.516;2023-02-02T06:15:13;20.20;;;6.27;;
29958;SDS011;16815;51.100;6.516;2023-02-02T06:17:39;16.07;;;6.50;;
29958;SDS011;16815;51.100;6.516;2023-02-02T06:20:05;17.60;;;5.50;;
29958;SDS011;16815;51.100;6.516;2023-02-02T06:22:31;20.70;;;6.47;;
29958;SDS011;16815;51.100;6.516;2023-02-02T06:24:57;19.50;;;6.03;;
29958;SDS011;16815;51.100;6.516;2023-02-02T06:27:23;17.53;;;5.73;;
29958;SDS011;16815;51.100;6.516;2023-02-02T06:29:49;15.13;;;6.00;;
29958;SDS011;16815;51.100;6.516;2023-02-02T06:32:15;20.07;;;6.17;;
29958;SDS011;16815;51.100;6.516;2023-02-02T06:34:41;19.73;;;5.90;;
29958;SDS011;16815;51.100;6.516;2023-02-02T06:37:07;17.00;;;5.87;;
29958;SDS011;16815;51.100;6.516;2023-02-02T06:39:33;25.83;;;7.27;;
29958;SDS011;16815;51.100;6.516;2023-02-02T06:41:59;13.03;;;5.50;;
29958;SDS011;16815;51.100;6.516;2023-02-02T06:44:25;13.47;;;5.40;;
29958;SDS011;16815;51.100;6.516;2023-02-02T06:46:51;17.50;;;5.60;;
29958;SDS011;16815;51.100;6.516;2023-02-02T06:49:17;16.87;;;5.80;;
29958;SDS011;16815;51.100;6.516;2023-02-02T06:51:43;18.70;;;6.33;;
29958;SDS011;16815;51.100;6.516;2023-02-02T06:54:11;17.77;;;6.33;;
29958;SDS011;16815;51.100;6.516;2023-02-02T06:56:37;14.97;;;6.20;;
29958;SDS011;16815;51.100;6.516;2023-02-02T06:59:03;17.97;;;6.63;;
29958;SDS011;16815;51.100;6.516;2023-02-02T07:01:29;19.53;;;5.93;;
29958;SDS011;16815;51.100;6.516;2023-02-02T07:03:55;19.47;;;6.10;;
29958;SDS011;16815;51.100;6.516;2023-02-02T07:06:22;22.03;;;6.33;;
29958;SDS011;16815;51.100;6.516;2023-02-02T07:08:48;21.33;;;6.90;;
29958;SDS011;16815;51.100;6.516;2023-02-02T07:11:15;16.70;;;6.53;;
29958;SDS011;16815;51.100;6.516;2023-02-02T07:13:42;18.20;;;7.00;;
29958;SDS011;16815;51.100;6.516;2023-02-02T07:16:08;19.07;;;6.70;;
29958;SDS011;16815;51.100;6.516;2023-02-02T07:18:34;26.50;;;6.97;;
29958;SDS011;16815;51.100;6.516;2023-02-02T07:21:03;20.17;;;6.80;;
29958;SDS011;16815;51.100;6.516;2023-02-02T07:23:30;14.93;;;6.63;;
29958;SDS011;16815;51.100;6.516;2023-02-02T07:26:06;18.63;;;7.17;;
29958;SDS011;16815;51.100;6.516;2023-02-02T07:28:33;24.37;;;6.97;;
29958;SDS011;16815;51.100;6.516;2023-02-02T07:30:59;22.77;;;7.30;;
29958;SDS011;16815;51.100;6.516;2023-02-02T07:33:25;15.27;;;6.07;;
29958;SDS011;16815;51.100;6.516;2023-02-02T07:35:51;20.97;;;7.57;;
29958;SDS011;16815;51.100;6.516;2023-02-02T07:38:17;18.80;;;6.77;;
29958;SDS011;16815;51.100;6.516;2023-02-02T07:40:44;18.40;;;6.67;;
29958;SDS011;16815;51.100;6.516;2023-02-02T07:43:10;39.67;;;7.27;;
29958;SDS011;16815;51.100;6.516;2023-02-02T07:45:36;19.03;;;6.90;;
29958;SDS011;16815;51.100;6.516;2023-02-02T07:48:02;15.33;;;6.87;;
29958;SDS011;16815;51.100;6.516;2023-02-02T07:50:28;16.60;;;7.13;;
29958;SDS011;16815;51.100;6.516;2023-02-02T07:52:55;15.60;;;8.10;;
29958;SDS011;16815;51.100;6.516;2023-02-02T07:55:21;21.70;;;7.03;;
29958;SDS011;16815;51.100;6.516;2023-02-02T07:57:47;27.00;;;8.10;;
29958;SDS011;16815;51.100;6.516;2023-02-02T08:00:16;12.80;;;6.60;;
29958;SDS011;16815;51.100;6.516;2023-02-02T08:02:42;16.13;;;7.33;;
29958;SDS011;16815;51.100;6.516;2023-02-02T08:05:08;17.73;;;7.00;;
29958;SDS011;16815;51.100;6.516;2023-02-02T08:07:34;24.77;;;7.30;;
29958;SDS011;16815;51.100;6.516;2023-02-02T08:10:00;17.47;;;7.13;;
29958;SDS011;16815;51.100;6.516;2023-02-02T08:12:26;19.27;;;6.90;;
29958;SDS011;16815;51.100;6.516;2023-02-02T08:14:52;17.43;;;7.40;;
29958;SDS011;16815;51.100;6.516;2023-02-02T08:17:18;18.13;;;6.67;;
29958;SDS011;16815;51.100;6.516;2023-02-02T08:19:44;18.40;;;7.10;;
29958;SDS011;16815;51.100;6.516;2023-02-02T08:22:09;20.17;;;7.77;;
29958;SDS011;16815;51.100;6.516;2023-02-02T08:24:35;21.90;;;7.43;;
29958;SDS011;16815;51.100;6.516;2023-02-02T08:27:07;18.43;;;7.43;;
29958;SDS011;16815;51.100;6.516;2023-02-02T08:29:33;18.80;;;7.50;;
29958;SDS011;16815;51.100;6.516;2023-02-02T08:31:59;14.37;;;7.20;;
29958;SDS011;16815;51.100;6.516;2023-02-02T08:34:26;18.77;;;7.07;;
29958;SDS011;16815;51.100;6.516;2023-02-02T08:36:51;15.90;;;7.00;;
29958;SDS011;16815;51.100;6.516;2023-02-02T08:39:17;21.83;;;7.93;;
29958;SDS011;16815;51.100;6.516;2023-02-02T08:41:43;18.53;;;7.03;;
29958;SDS011;16815;51.100;6.516;2023-02-02T08:44:11;22.00;;;6.87;;
29958;SDS011;16815;51.100;6.516;2023-02-02T08:46:37;20.10;;;7.00;;
29958;SDS011;16815;51.100;6.516;2023-02-02T08:49:03;14.00;;;6.10;;
29958;SDS011;16815;51.100;6.516;2023-02-02T08:51:29;16.33;;;6.37;;
29958;SDS011;16815;51.100;6.516;2023-02-02T08:53:55;12.73;;;5.80;;
29958;SDS011;16815;51.100;6.516;2023-02-02T08:56:21;14.60;;;5.67;;
29958;SDS011;16815;51.100;6.516;2023-02-02T08:58:48;16.67;;;5.77;;
29958;SDS011;16815;51.100;6.516;2023-02-02T09:01:15;13.30;;;5.83;;
29958;SDS011;16815;51.100;6.516;2023-02-02T09:03:42;18.67;;;6.17;;
29958;SDS011;16815;51.100;6.516;2023-02-02T09:06:10;18.03;;;6.17;;
29958;SDS011;16815;51.100;6.516;2023-02-02T09:08:36;19.20;;;5.40;;
29958;SDS011;16815;51.100;6.516;2023-02-02T09:11:09;18.30;;;5.73;;
29958;SDS011;16815;51.100;6.516;2023-02-02T09:13:35;17.90;;;6.00;;
29958;SDS011;16815;51.100;6.516;2023-02-02T09:16:02;16.77;;;6.60;;
29958;SDS011;16815;51.100;6.516;2023-02-02T09:18:28;17.03;;;6.27;;
29958;SDS011;16815;51.100;6.516;2023-02-02T09:20:57;16.67;;;6.50;;
29958;SDS011;16815;51.100;6.516;2023-02-02T09:23:23;17.67;;;6.83;;
29958;SDS011;16815;51.100;6.516;2023-02-02T09:25:50;14.53;;;6.57;;
29958;SDS011;16815;51.100;6.516;2023-02-02T09:28:16;15.60;;;6.43;;
29958;SDS011;16815;51.100;6.516;2023-02-02T09:30:42;17.47;;;6.97;;
29958;SDS011;16815;51.100;6.516;2023-02-02T09:33:08;15.73;;;6.93;;
29958;SDS011;16815;51.100;6.516;2023-02-02T09:35:34;16.33;;;7.17;;
29958;SDS011;16815;51.100;6.516;2023-02-02T09:38:00;18.97;;;7.77;;
29958;SDS011;16815;51.100;6.516;2023-02-02T09:40:26;16.40;;;7.57;;
29958;SDS011;16815;51.100;6.516;2023-02-02T09:45:35;15.63;;;7.10;;
29958;SDS011;16815;51.100;6.516;2023-02-02T09:50:38;21.60;;;7.10;;
29958;SDS011;16815;51.100;6.516;2023-02-02T09:53:11;16.13;;;7.47;;
29958;SDS011;16815;51.100;6.516;2023-02-02T09:55:39;16.23;;;7.60;;
29958;SDS011;16815;51.100;6.516;2023-02-02T09:58:09;16.37;;;7.43;;
29958;SDS011;16815;51.100;6.516;2023-02-02T10:00:38;14.77;;;7.13;;
29958;SDS011;16815;51.100;6.516;2023-02-02T10:05:43;16.63;;;8.07;;
29958;SDS011;16815;51.100;6.516;2023-02-02T10:08:12;15.80;;;7.23;;
29958;SDS011;16815;51.100;6.516;2023-02-02T10:10:41;15.30;;;7.83;;
29958;SDS011;16815;51.100;6.516;2023-02-02T10:13:16;21.60;;;8.03;;
29958;SDS011;16815;51.100;6.516;2023-02-02T10:15:51;16.47;;;8.80;;
29958;SDS011;16815;51.100;6.516;2023-02-02T10:18:23;17.40;;;7.60;;
29958;SDS011;16815;51.100;6.516;2023-02-02T10:20:56;15.53;;;7.57;;
29958;SDS011;16815;51.100;6.516;2023-02-02T10:23:24;17.77;;;7.83;;
29958;SDS011;16815;51.100;6.516;2023-02-02T10:34:05;11.40;;;6.50;;
29958;SDS011;16815;51.100;6.516;2023-02-02T10:36:42;16.97;;;6.90;;
29958;SDS011;16815;51.100;6.516;2023-02-02T10:47:03;19.03;;;6.87;;
29958;SDS011;16815;51.100;6.516;2023-02-02T10:49:30;18.93;;;7.17;;
29958;SDS011;16815;51.100;6.516;2023-02-02T10:52:00;11.70;;;6.43;;
29958;SDS011;16815;51.100;6.516;2023-02-02T10:54:36;17.07;;;6.57;;
29958;SDS011;16815;51.100;6.516;2023-02-02T10:57:05;12.53;;;7.00;;
29958;SDS011;16815;51.100;6.516;2023-02-02T10:59:34;20.43;;;7.17;;
29958;SDS011;16815;51.100;6.516;2023-02-02T11:02:05;16.80;;;6.53;;
29958;SDS011;16815;51.100;6.516;2023-02-02T11:04:32;12.10;;;6.00;;
29958;SDS011;16815;51.100;6.516;2023-02-02T11:07:17;15.23;;;6.87;;
29958;SDS011;16815;51.100;6.516;2023-02-02T11:09:44;11.97;;;6.30;;
29958;SDS011;16815;51.100;6.516;2023-02-02T11:14:50;11.33;;;5.90;;
29958;SDS011;16815;51.100;6.516;2023-02-02T11:17:21;20.00;;;6.27;;
29958;SDS011;16815;51.100;6.516;2023-02-02T11:19:47;14.20;;;5.90;;
29958;SDS011;16815;51.100;6.516;2023-02-02T11:25:00;15.53;;;5.97;;
29958;SDS011;16815;51.100;6.516;2023-02-02T11:27:28;12.03;;;5.90;;
29958;SDS011;16815;51.100;6.516;2023-02-02T11:29:56;10.37;;;5.40;;
29958;SDS011;16815;51.100;6.516;2023-02-02T11:42:46;12.10;;;5.70;;
29958;SDS011;16815;51.100;6.516;2023-02-02T11:45:16;11.60;;;6.00;;
29958;SDS011;16815;51.100;6.516;2023-02-02T11:47:43;12.00;;;5.53;;
29958;SDS011;16815;51.100;6.516;2023-02-02T11:50:15;12.13;;;5.53;;
29958;SDS011;16815;51.100;6.516;2023-02-02T11:52:44;13.63;;;5.50;;
29958;SDS011;16815;51.100;6.516;2023-02-02T11:55:14;12.20;;;5.37;;
29958;SDS011;16815;51.100;6.516;2023-02-02T11:57:43;12.70;;;5.43;;
29958;SDS011;16815;51.100;6.516;2023-02-02T12:00:27;13.43;;;5.70;;
29958;SDS011;16815;51.100;6.516;2023-02-02T12:02:54;9.73;;;5.93;;
29958;SDS011;16815;51.100;6.516;2023-02-02T12:07:51;11.50;;;5.63;;
29958;SDS011;16815;51.100;6.516;2023-02-02T12:10:35;12.73;;;5.83;;
29958;SDS011;16815;51.100;6.516;2023-02-02T12:13:06;14.43;;;5.90;;
29958;SDS011;16815;51.100;6.516;2023-02-02T12:15:47;10.20;;;5.93;;
29958;SDS011;16815;51.100;6.516;2023-02-02T12:21:06;13.17;;;6.57;;
29958;SDS011;16815;51.100;6.516;2023-02-02T12:23:48;16.33;;;6.87;;
29958;SDS011;16815;51.100;6.516;2023-02-02T12:26:20;10.33;;;5.80;;
29958;SDS011;16815;51.100;6.516;2023-02-02T12:31:36;15.13;;;6.73;;
29958;SDS011;16815;51.100;6.516;2023-02-02T12:44:43;10.43;;;5.77;;
29958;SDS011;16815;51.100;6.516;2023-02-02T12:50:12;11.17;;;5.40;;
29958;SDS011;16815;51.100;6.516;2023-02-02T12:52:52;11.77;;;5.93;;
29958;SDS011;16815;51.100;6.516;2023-02-02T12:55:22;12.37;;;5.70;;
29958;SDS011;16815;51.100;6.516;2023-02-02T13:00:28;13.80;;;6.03;;
29958;SDS011;16815;51.100;6.516;2023-02-02T13:08:16;9.57;;;5.57;;
29958;SDS011;16815;51.100;6.516;2023-02-02T13:10:46;13.10;;;4.87;;
29958;SDS011;16815;51.100;6.516;2023-02-02T13:15:39;12.13;;;4.60;;
29958;SDS011;16815;51.100;6.516;2023-02-02T13:18:11;9.87;;;4.67;;
29958;SDS011;16815;51.100;6.516;2023-02-02T13:20:40;9.73;;;4.50;;
29958;SDS011;16815;51.100;6.516;2023-02-02T13:23:40;10.57;;;5.00;;
29958;SDS011;16815;51.100;6.516;2023-02-02T13:26:03;10.80;;;4.60;;
29958;SDS011;16815;51.100;6.516;2023-02-02T13:30:58;11.23;;;4.53;;
29958;SDS011;16815;51.100;6.516;2023-02-02T13:33:28;9.47;;;4.60;;
29958;SDS011;16815;51.100;6.516;2023-02-02T13:35:55;9.13;;;4.60;;
29958;SDS011;16815;51.100;6.516;2023-02-02T13:38:24;11.50;;;4.40;;
29958;SDS011;16815;51.100;6.516;2023-02-02T13:40:50;10.50;;;4.23;;
29958;SDS011;16815;51.100;6.516;2023-02-02T13:46:24;8.00;;;3.63;;
29958;SDS011;16815;51.100;6.516;2023-02-02T13:51:26;10.03;;;3.73;;
29958;SDS011;16815;51.100;6.516;2023-02-02T13:54:15;12.57;;;4.23;;
29958;SDS011;16815;51.100;6.516;2023-02-02T13:59:27;9.63;;;3.80;;
29958;SDS011;16815;51.100;6.516;2023-02-02T14:01:59;10.73;;;3.60;;
29958;SDS011;16815;51.100;6.516;2023-02-02T14:04:26;10.57;;;4.07;;
29958;SDS011;16815;51.100;6.516;2023-02-02T14:06:54;11.33;;;4.30;;
29958;SDS011;16815;51.100;6.516;2023-02-02T14:09:22;10.13;;;4.30;;
29958;SDS011;16815;51.100;6.516;2023-02-02T14:11:56;9.83;;;3.60;;
29958;SDS011;16815;51.100;6.516;2023-02-02T14:14:23;8.47;;;3.40;;
29958;SDS011;16815;51.100;6.516;2023-02-02T14:34:59;7.70;;;3.57;;
29958;SDS011;16815;51.100;6.516;2023-02-02T14:37:50;5.50;;;3.60;;
29958;SDS011;16815;51.100;6.516;2023-02-02T14:40:23;6.27;;;3.33;;
29958;SDS011;16815;51.100;6.516;2023-02-02T14:48:39;8.30;;;4.00;;
29958;SDS011;16815;51.100;6.516;2023-02-02T14:51:13;5.70;;;3.37;;
29958;SDS011;16815;51.100;6.516;2023-02-02T14:53:45;8.60;;;3.63;;
29958;SDS011;16815;51.100;6.516;2023-02-02T14:56:13;7.40;;;3.40;;
29958;SDS011;16815;51.100;6.516;2023-02-02T14:58:41;6.90;;;3.43;;
29958;SDS011;16815;51.100;6.516;2023-02-02T15:06:02;8.73;;;3.73;;
29958;SDS011;16815;51.100;6.516;2023-02-02T15:08:29;3.70;;;2.80;;
29958;SDS011;16815;51.100;6.516;2023-02-02T15:13:24;7.63;;;3.77;;
29958;SDS011;16815;51.100;6.516;2023-02-02T15:16:00;8.30;;;3.40;;
29958;SDS011;16815;51.100;6.516;2023-02-02T15:18:29;9.77;;;3.43;;
29958;SDS011;16815;51.100;6.516;2023-02-02T15:20:57;8.13;;;3.40;;
29958;SDS011;16815;51.100;6.516;2023-02-02T15:23:29;7.23;;;3.50;;
29958;SDS011;16815;51.100;6.516;2023-02-02T15:33:36;9.33;;;3.57;;
29958;SDS011;16815;51.100;6.516;2023-02-02T15:36:15;8.80;;;3.30;;
29958;SDS011;16815;51.100;6.516;2023-02-02T15:38:42;7.43;;;2.87;;
29958;SDS011;16815;51.100;6.516;2023-02-02T15:41:26;9.30;;;3.73;;
29958;SDS011;16815;51.100;6.516;2023-02-02T15:43:53;10.83;;;3.63;;
29958;SDS011;16815;51.100;6.516;2023-02-02T15:46:30;9.43;;;3.60;;
29958;SDS011;16815;51.100;6.516;2023-02-02T15:49:21;6.80;;;3.57;;
29958;SDS011;16815;51.100;6.516;2023-02-02T15:51:53;8.50;;;3.70;;
29958;SDS011;16815;51.100;6.516;2023-02-02T15:54:29;8.10;;;3.23;;
29958;SDS011;16815;51.100;6.516;2023-02-02T15:56:56;10.83;;;3.40;;
29958;SDS011;16815;51.100;6.516;2023-02-02T15:59:24;10.00;;;3.23;;
29958;SDS011;16815;51.100;6.516;2023-02-02T16:06:57;6.40;;;3.57;;
29958;SDS011;16815;51.100;6.516;2023-02-02T16:09:25;9.00;;;4.10;;
29958;SDS011;16815;51.100;6.516;2023-02-02T16:11:52;6.07;;;3.83;;
29958;SDS011;16815;51.100;6.516;2023-02-02T16:14:18;10.37;;;4.40;;
29958;SDS011;16815;51.100;6.516;2023-02-02T16:16:44;7.63;;;3.53;;
29958;SDS011;16815;51.100;6.516;2023-02-02T16:21:59;11.27;;;4.27;;
29958;SDS011;16815;51.100;6.516;2023-02-02T16:24:33;7.20;;;3.90;;
29958;SDS011;16815;51.100;6.516;2023-02-02T16:27:00;8.83;;;4.20;;
29958;SDS011;16815;51.100;6.516;2023-02-02T16:29:27;11.27;;;3.67;;
29958;SDS011;16815;51.100;6.516;2023-02-02T16:31:54;6.50;;;3.87;;
29958;SDS011;16815;51.100;6.516;2023-02-02T16:37:05;8.30;;;3.90;;
29958;SDS011;16815;51.100;6.516;2023-02-02T16:39:31;8.27;;;4.40;;
29958;SDS011;16815;51.100;6.516;2023-02-02T16:42:07;10.97;;;4.57;;
29958;SDS011;16815;51.100;6.516;2023-02-02T16:44:38;10.27;;;4.13;;
29958;SDS011;16815;51.100;6.516;2023-02-02T16:47:05;6.67;;;3.70;;
29958;SDS011;16815;51.100;6.516;2023-02-02T16:49:32;9.37;;;4.37;;
29958;SDS011;16815;51.100;6.516;2023-02-02T16:52:08;8.73;;;4.70;;
29958;SDS011;16815;51.100;6.516;2023-02-02T16:54:35;8.53;;;4.33;;
29958;SDS011;16815;51.100;6.516;2023-02-02T16:57:02;6.90;;;4.90;;
29958;SDS011;16815;51.100;6.516;2023-02-02T16:59:29;7.53;;;4.70;;
29958;SDS011;16815;51.100;6.516;2023-02-02T17:02:44;9.53;;;5.03;;
29958;SDS011;16815;51.100;6.516;2023-02-02T17:04:46;8.23;;;4.80;;
29958;SDS011;16815;51.100;6.516;2023-02-02T17:07:13;8.63;;;5.17;;
29958;SDS011;16815;51.100;6.516;2023-02-02T17:09:43;9.17;;;5.27;;
29958;SDS011;16815;51.100;6.516;2023-02-02T17:14:49;8.20;;;5.53;;
29958;SDS011;16815;51.100;6.516;2023-02-02T17:17:17;12.00;;;6.10;;
29958;SDS011;16815;51.100;6.516;2023-02-02T17:19:42;10.80;;;6.10;;
29958;SDS011;16815;51.100;6.516;2023-02-02T17:22:08;11.70;;;6.27;;